Time,TemperatureF,DewpointF,PressureIn,WindDirection,WindDirectionDegrees,WindSpeedMPH,WindSpeedGustMPH,Humidity,HourlyPrecipIn,Conditions,Clouds,dailyrainin,SolarRadiationWatts/m^2,SoftwareType,DateUTC
2013-01-09 00:00:00,49.6,45.0,30.16,SE,144,0.0,3.0,85,0.00,,,0.00,0,weatherlink.com 1.10,2013-01-09 08:00:00,
2013-01-09 00:15:00,49.9,46.0,30.16,SE,128,2.0,5.0,85,0.00,,,0.00,0,weatherlink.com 1.10,2013-01-09 08:15:00,
2013-01-09 00:30:00,50.1,46.0,30.17,SSE,151,4.0,6.0,85,0.00,,,0.00,0,weatherlink.com 1.10,2013-01-09 08:30:00,
2013-01-09 00:45:00,50.3,46.0,30.16,NE,44,3.0,5.0,85,0.00,,,0.00,0,weatherlink.com 1.10,2013-01-09 08:45:00,
2013-01-09 01:00:00,50.3,46.0,30.14,NE,40,3.0,6.0,85,0.00,,,0.00,0,weatherlink.com 1.10,2013-01-09 09:00:00,
2013-01-09 01:15:00,50.2,46.0,30.16,ENE,63,0.0,3.0,85,0.00,,,0.00,0,weatherlink.com 1.10,2013-01-09 09:15:00,
2013-01-09 01:30:00,50.1,46.0,30.15,NNE,25,0.0,4.0,85,0.00,,,0.00,0,weatherlink.com 1.10,2013-01-09 09:30:00,
2013-01-09 01:45:00,49.9,46.0,30.16,SSW,198,5.0,5.0,85,0.00,,,0.00,0,weatherlink.com 1.10,2013-01-09 09:45:00,
2013-01-09 02:00:00,49.7,45.0,30.15,SSW,200,0.0,3.0,85,0.00,,,0.00,0,weatherlink.com 1.10,2013-01-09 10:00:00,
2013-01-09 02:15:00,49.6,45.0,30.16,SSW,200,0.0,1.0,85,0.00,,,0.00,0,weatherlink.com 1.10,2013-01-09 10:15:00,
2013-01-09 02:30:00,49.6,45.0,30.16,NW,306,0.0,3.0,85,0.00,,,0.00,0,weatherlink.com 1.10,2013-01-09 10:30:00,
2013-01-09 02:45:00,49.6,45.0,30.16,NW,314,1.0,4.0,85,0.00,,,0.00,0,weatherlink.com 1.10,2013-01-09 10:45:00,
2013-01-09 03:00:00,49.0,45.0,30.14,NE,41,5.0,6.0,85,0.00,,,0.00,0,weatherlink.com 1.10,2013-01-09 11:00:00,
2013-01-09 03:15:00,48.4,44.0,30.12,ENE,57,0.0,7.0,85,0.00,,,0.00,0,weatherlink.com 1.10,2013-01-09 11:15:00,
2013-01-09 03:30:00,48.2,44.0,30.14,WSW,239,5.0,6.0,85,0.00,,,0.00,0,weatherlink.com 1.10,2013-01-09 11:30:00,
2013-01-09 03:45:00,49.5,46.0,30.15,NW,308,3.0,7.0,86,0.00,,,0.00,0,weatherlink.com 1.10,2013-01-09 11:45:00,
2013-01-09 04:00:00,49.4,45.0,30.13,North,5,1.0,5.0,86,0.00,,,0.00,0,weatherlink.com 1.10,2013-01-09 12:00:00,
2013-01-09 04:15:00,49.6,46.0,30.13,WNW,283,2.0,5.0,86,0.00,,,0.00,0,weatherlink.com 1.10,2013-01-09 12:15:00,
2013-01-09 04:30:00,49.9,46.0,30.14,WNW,284,4.0,4.0,86,0.00,,,0.00,0,weatherlink.com 1.10,2013-01-09 12:30:00,
2013-01-09 04:45:00,50.1,46.0,30.14,WNW,302,3.0,7.0,86,0.00,,,0.00,0,weatherlink.com 1.10,2013-01-09 12:45:00,
2013-01-09 05:00:00,50.0,46.0,30.12,North,355,2.0,4.0,86,0.00,,,0.00,0,weatherlink.com 1.10,2013-01-09 13:00:00,
2013-01-09 05:15:00,49.1,45.0,30.11,NE,42,0.0,8.0,85,0.00,,,0.00,0,weatherlink.com 1.10,2013-01-09 13:15:00,
2013-01-09 05:30:00,48.6,44.0,30.12,NE,41,3.0,4.0,85,0.00,,,0.00,0,weatherlink.com 1.10,2013-01-09 13:30:00,
2013-01-09 05:48:00,48.7,44.0,30.12,NE,41,0.0,3.0,85,0.00,,,0.00,0,weatherlink.com 1.10,2013-01-09 13:48:00,
2013-01-09 06:00:00,48.8,45.0,30.11,NNE,15,3.0,6.0,85,0.00,,,0.00,0,weatherlink.com 1.10,2013-01-09 14:00:00,
2013-01-09 06:15:00,48.5,44.0,30.12,North,355,4.0,6.0,85,0.00,,,0.00,0,weatherlink.com 1.10,2013-01-09 14:15:00,
2013-01-09 06:30:00,48.3,44.0,30.10,NNE,16,2.0,5.0,85,0.00,,,0.00,0,weatherlink.com 1.10,2013-01-09 14:30:00,
2013-01-09 06:45:00,48.0,44.0,30.11,NNE,17,0.0,3.0,85,0.00,,,0.00,0,weatherlink.com 1.10,2013-01-09 14:45:00,
2013-01-09 07:00:00,47.0,42.0,30.10,NNE,17,1.0,2.0,84,0.00,,,0.00,0,weatherlink.com 1.10,2013-01-09 15:00:00,
2013-01-09 07:15:00,46.2,42.0,30.11,NNE,17,0.0,3.0,85,0.00,,,0.00,0,weatherlink.com 1.10,2013-01-09 15:15:00,
2013-01-09 07:31:00,46.9,43.0,30.10,NNE,17,2.0,3.0,85,0.00,,,0.00,0,weatherlink.com 1.10,2013-01-09 15:31:00,
2013-01-09 07:46:00,47.2,43.0,30.11,NE,36,1.0,7.0,86,0.00,,,0.00,14,weatherlink.com 1.10,2013-01-09 15:46:00,
2013-01-09 08:01:00,47.7,44.0,30.11,NNE,21,2.0,6.0,86,0.00,,,0.00,30,weatherlink.com 1.10,2013-01-09 16:01:00,
2013-01-09 08:16:00,48.4,44.0,30.10,NE,42,2.0,8.0,85,0.00,,,0.00,35,weatherlink.com 1.10,2013-01-09 16:16:00,
2013-01-09 08:31:00,48.8,45.0,30.11,NE,47,0.0,3.0,85,0.00,,,0.00,46,weatherlink.com 1.10,2013-01-09 16:31:00,
2013-01-09 08:46:00,49.0,45.0,30.10,NE,49,0.0,2.0,85,0.00,,,0.00,79,weatherlink.com 1.10,2013-01-09 16:46:00,
2013-01-09 09:01:00,49.0,45.0,30.10,North,5,0.0,5.0,85,0.00,,,0.00,113,weatherlink.com 1.10,2013-01-09 17:01:00,
2013-01-09 09:16:00,49.6,45.0,30.09,NNE,20,0.0,4.0,85,0.00,,,0.00,130,weatherlink.com 1.10,2013-01-09 17:16:00,
2013-01-09 09:31:00,49.9,46.0,30.10,NNE,25,2.0,5.0,85,0.00,,,0.00,135,weatherlink.com 1.10,2013-01-09 17:31:00,
2013-01-09 09:46:00,50.4,46.0,30.10,NNE,25,0.0,3.0,84,0.00,,,0.00,153,weatherlink.com 1.10,2013-01-09 17:46:00,
2013-01-09 10:01:00,51.2,47.0,30.09,NNE,25,2.0,3.0,84,0.00,,,0.00,204,weatherlink.com 1.10,2013-01-09 18:01:00,
2013-01-09 10:16:00,51.9,47.0,30.09,NNE,25,0.0,2.0,84,0.00,,,0.00,172,weatherlink.com 1.10,2013-01-09 18:16:00,
2013-01-09 10:31:00,52.3,48.0,30.09,NNE,25,0.0,2.0,84,0.00,,,0.00,132,weatherlink.com 1.10,2013-01-09 18:31:00,
2013-01-09 10:46:00,52.7,48.0,30.08,NNE,25,0.0,2.0,83,0.00,,,0.00,128,weatherlink.com 1.10,2013-01-09 18:46:00,
2013-01-09 11:01:00,53.0,48.0,30.08,NNE,25,0.0,2.0,82,0.00,,,0.00,151,weatherlink.com 1.10,2013-01-09 19:01:00,
2013-01-09 11:16:00,53.0,48.0,30.07,NNE,27,0.0,3.0,82,0.00,,,0.00,53,weatherlink.com 1.10,2013-01-09 19:16:00,
2013-01-09 11:31:00,52.8,47.0,30.06,South,182,1.0,2.0,81,0.00,,,0.00,65,weatherlink.com 1.10,2013-01-09 19:31:00,
2013-01-09 11:46:00,52.3,47.0,30.06,South,182,2.0,3.0,82,0.02,,,0.02,16,weatherlink.com 1.10,2013-01-09 19:46:00,
2013-01-09 12:01:00,50.6,45.0,30.05,West,280,6.0,9.0,82,0.04,,,0.04,67,weatherlink.com 1.10,2013-01-09 20:01:00,
2013-01-09 12:16:00,50.5,46.0,30.05,WNW,288,4.0,8.0,83,0.04,,,0.04,63,weatherlink.com 1.10,2013-01-09 20:16:00,
2013-01-09 12:31:00,50.1,46.0,30.04,West,279,5.0,13.0,84,0.03,,,0.04,84,weatherlink.com 1.10,2013-01-09 20:31:00,
2013-01-09 12:46:00,49.9,45.0,30.05,West,277,9.0,12.0,84,0.02,,,0.04,93,weatherlink.com 1.10,2013-01-09 20:46:00,
2013-01-09 13:01:00,50.0,45.0,30.04,WNW,287,3.0,11.0,84,0.00,,,0.04,104,weatherlink.com 1.10,2013-01-09 21:01:00,
2013-01-09 13:16:00,49.7,45.0,30.04,NW,309,6.0,14.0,83,0.00,,,0.04,111,weatherlink.com 1.10,2013-01-09 21:16:00,
2013-01-09 13:31:00,49.5,45.0,30.04,WNW,298,6.0,13.0,83,0.00,,,0.04,107,weatherlink.com 1.10,2013-01-09 21:31:00,
2013-01-09 13:46:00,49.4,44.0,30.03,NNW,331,3.0,15.0,82,0.00,,,0.04,142,weatherlink.com 1.10,2013-01-09 21:46:00,
2013-01-09 14:01:00,49.0,43.0,30.04,WNW,303,7.0,13.0,81,0.00,,,0.04,86,weatherlink.com 1.10,2013-01-09 22:01:00,
2013-01-09 14:16:00,48.0,42.0,30.04,West,267,11.0,22.0,80,0.00,,,0.04,146,weatherlink.com 1.10,2013-01-09 22:16:00,
2013-01-09 14:31:00,47.9,42.0,30.05,NW,322,21.0,21.0,80,0.00,,,0.04,104,weatherlink.com 1.10,2013-01-09 22:31:00,
2013-01-09 14:46:00,47.7,41.0,30.04,NNW,329,8.0,15.0,78,0.00,,,0.04,125,weatherlink.com 1.10,2013-01-09 22:46:00,
2013-01-09 15:01:00,48.5,41.0,30.04,NW,325,10.0,16.0,76,0.00,,,0.04,420,weatherlink.com 1.10,2013-01-09 23:01:00,
2013-01-09 15:16:00,50.0,42.0,30.04,West,280,4.0,12.0,75,0.00,,,0.04,279,weatherlink.com 1.10,2013-01-09 23:16:00,
2013-01-09 15:31:00,50.4,42.0,30.04,NW,320,7.0,17.0,72,0.00,,,0.04,223,weatherlink.com 1.10,2013-01-09 23:31:00,
2013-01-09 15:46:00,49.9,41.0,30.04,NW,320,4.0,18.0,72,0.00,,,0.04,53,weatherlink.com 1.10,2013-01-09 23:46:00,
2013-01-09 16:02:00,49.2,41.0,30.04,NW,316,4.0,15.0,73,0.00,,,0.04,62,weatherlink.com 1.10,2013-01-10 00:02:00,
2013-01-09 16:16:00,48.7,41.0,30.03,West,277,4.0,18.0,74,0.00,,,0.04,83,weatherlink.com 1.10,2013-01-10 00:16:00,
2013-01-09 16:31:00,49.2,41.0,30.04,NNW,336,5.0,10.0,73,0.00,,,0.04,21,weatherlink.com 1.10,2013-01-10 00:31:00,
2013-01-09 16:47:00,47.9,40.0,30.03,NNW,336,12.0,12.0,73,0.00,,,0.04,16,weatherlink.com 1.10,2013-01-10 00:47:00,
2013-01-09 17:02:00,47.3,39.0,30.03,NNW,330,2.0,14.0,73,0.00,,,0.04,9,weatherlink.com 1.10,2013-01-10 01:02:00,
2013-01-09 17:17:00,46.7,39.0,30.03,West,281,4.0,10.0,74,0.00,,,0.04,0,weatherlink.com 1.10,2013-01-10 01:17:00,
2013-01-09 17:32:00,46.4,39.0,30.03,NW,304,4.0,9.0,75,0.00,,,0.04,0,weatherlink.com 1.10,2013-01-10 01:32:00,
2013-01-09 17:47:00,45.9,38.0,30.04,WNW,303,3.0,13.0,75,0.00,,,0.04,0,weatherlink.com 1.10,2013-01-10 01:47:00,
2013-01-09 18:02:00,45.6,38.0,30.04,WNW,300,5.0,7.0,74,0.00,,,0.04,0,weatherlink.com 1.10,2013-01-10 02:02:00,
2013-01-09 18:17:00,45.2,38.0,30.04,NW,305,3.0,6.0,75,0.00,,,0.04,0,weatherlink.com 1.10,2013-01-10 02:17:00,
2013-01-09 18:32:00,45.4,38.0,30.04,WNW,283,3.0,8.0,75,0.00,,,0.04,0,weatherlink.com 1.10,2013-01-10 02:32:00,
2013-01-09 18:47:00,45.6,38.0,30.05,WNW,284,1.0,9.0,75,0.00,,,0.04,0,weatherlink.com 1.10,2013-01-10 02:47:00,
2013-01-09 19:02:00,45.4,38.0,30.05,NW,307,7.0,13.0,76,0.00,,,0.04,0,weatherlink.com 1.10,2013-01-10 03:02:00,
2013-01-09 19:17:00,45.0,38.0,30.05,WNW,302,2.0,7.0,76,0.00,,,0.04,0,weatherlink.com 1.10,2013-01-10 03:17:00,
2013-01-09 19:32:00,44.8,38.0,30.05,NNW,335,2.0,7.0,77,0.00,,,0.04,0,weatherlink.com 1.10,2013-01-10 03:32:00,
2013-01-09 19:47:00,45.1,38.0,30.05,NNW,333,3.0,12.0,77,0.00,,,0.04,0,weatherlink.com 1.10,2013-01-10 03:47:00,
2013-01-09 20:47:00,44.8,37.0,30.06,NW,304,4.0,8.0,75,0.00,,,0.04,0,weatherlink.com 1.10,2013-01-10 04:47:00,
2013-01-09 21:02:00,45.0,37.0,30.07,NW,310,7.0,10.0,73,0.00,,,0.04,0,weatherlink.com 1.10,2013-01-10 05:02:00,
2013-01-09 21:17:00,45.1,37.0,30.07,NNW,333,7.0,11.0,73,0.00,,,0.04,0,weatherlink.com 1.10,2013-01-10 05:17:00,
2013-01-09 22:02:00,43.5,36.0,30.08,NNW,348,5.0,10.0,75,0.00,,,0.04,0,weatherlink.com 1.10,2013-01-10 06:02:00,
2013-01-09 22:17:00,43.7,37.0,30.09,NNW,329,6.0,13.0,76,0.00,,,0.04,0,weatherlink.com 1.10,2013-01-10 06:17:00,
2013-01-09 22:32:00,43.1,36.0,30.09,North,11,7.0,13.0,77,0.00,,,0.04,0,weatherlink.com 1.10,2013-01-10 06:32:00,
2013-01-09 22:47:00,42.7,36.0,30.08,NNW,339,5.0,10.0,77,0.00,,,0.04,0,weatherlink.com 1.10,2013-01-10 06:47:00,
2013-01-09 23:02:00,42.7,36.0,30.09,NNW,337,4.0,8.0,77,0.00,,,0.04,0,weatherlink.com 1.10,2013-01-10 07:02:00,
2013-01-09 23:17:00,43.1,36.0,30.09,NNW,328,2.0,10.0,77,0.00,,,0.04,0,weatherlink.com 1.10,2013-01-10 07:17:00,
2013-01-09 23:32:00,42.2,36.0,30.09,North,9,5.0,8.0,78,0.00,,,0.04,0,weatherlink.com 1.10,2013-01-10 07:32:00,
2013-01-09 23:47:00,41.6,36.0,30.09,NNE,26,2.0,8.0,79,0.01,,,0.05,0,weatherlink.com 1.10,2013-01-10 07:47:00,